sensor_id;sensor_type;location;lat;lon;timestamp;pressure;altitude;pressure_sealevel;temperature;humidity
42671;BME280;28283;55.426;37.756;2023-02-10T00:04:36;100483.06;;;-2.24;77.09
42671;BME280;28283;55.426;37.756;2023-02-10T00:09:37;100484.03;;;-1.82;74.46
42671;BME280;28283;55.426;37.756;2023-02-10T00:14:37;100465.09;;;-2.17;75.76
42671;BME280;28283;55.426;37.756;2023-02-10T00:19:38;100454.66;;;-2.19;76.17
42671;BME280;28283;55.426;37.756;2023-02-10T00:24:38;100446.25;;;-2.40;75.65
42671;BME280;28283;55.426;37.756;2023-02-10T00:29:39;100443.72;;;-2.27;74.54
42671;BME280;28283;55.426;37.756;2023-02-10T00:34:39;100445.13;;;-2.36;75.54
42671;BME280;28283;55.426;37.756;2023-02-10T00:39:40;100430.00;;;-2.62;75.68
42671;BME280;28283;55.426;37.756;2023-02-10T00:44:43;100397.78;;;-2.52;75.30
42671;BME280;28283;55.426;37.756;2023-02-10T00:49:44;100422.00;;;-2.31;75.62
42671;BME280;28283;55.426;37.756;2023-02-10T00:54:44;100401.06;;;-2.62;75.46
42671;BME280;28283;55.426;37.756;2023-02-10T00:59:45;100394.97;;;-2.48;76.04
42671;BME280;28283;55.426;37.756;2023-02-10T01:04:46;100400.16;;;-2.47;75.31
42671;BME280;28283;55.426;37.756;2023-02-10T01:09:46;100396.97;;;-2.23;74.83
42671;BME280;28283;55.426;37.756;2023-02-10T01:14:49;100366.41;;;-2.55;74.23
42671;BME280;28283;55.426;37.756;2023-02-10T01:19:50;100379.66;;;-2.56;74.69
42671;BME280;28283;55.426;37.756;2023-02-10T01:24:51;100376.53;;;-2.63;75.64
42671;BME280;28283;55.426;37.756;2023-02-10T01:29:52;100363.94;;;-2.58;76.26
42671;BME280;28283;55.426;37.756;2023-02-10T01:34:53;100333.75;;;-2.66;75.76
42671;BME280;28283;55.426;37.756;2023-02-10T01:39:53;100328.50;;;-2.66;74.93
42671;BME280;28283;55.426;37.756;2023-02-10T01:49:54;100332.97;;;-2.83;74.63
42671;BME280;28283;55.426;37.756;2023-02-10T01:55:22;100341.63;;;-2.81;75.39
42671;BME280;28283;55.426;37.756;2023-02-10T02:00:24;100327.34;;;-2.77;74.44
42671;BME280;28283;55.426;37.756;2023-02-10T02:05:29;100328.00;;;-2.73;74.76
42671;BME280;28283;55.426;37.756;2023-02-10T02:10:40;100322.94;;;-2.91;74.80
42671;BME280;28283;55.426;37.756;2023-02-10T02:16:00;100319.44;;;-2.91;75.31
42671;BME280;28283;55.426;37.756;2023-02-10T02:21:22;100322.72;;;-2.88;74.66
42671;BME280;28283;55.426;37.756;2023-02-10T02:36:54;100288.72;;;-2.91;74.17
42671;BME280;28283;55.426;37.756;2023-02-10T02:42:21;100275.66;;;-2.78;74.11
42671;BME280;28283;55.426;37.756;2023-02-10T02:53:10;100266.81;;;-2.91;74.03
42671;BME280;28283;55.426;37.756;2023-02-10T03:03:36;100241.53;;;-3.08;73.89
42671;BME280;28283;55.426;37.756;2023-02-10T03:08:37;100239.56;;;-3.04;74.27
42671;BME280;28283;55.426;37.756;2023-02-10T03:13:38;100253.34;;;-3.15;74.46
42671;BME280;28283;55.426;37.756;2023-02-10T03:18:39;100226.75;;;-3.11;75.18
42671;BME280;28283;55.426;37.756;2023-02-10T03:23:40;100228.06;;;-3.18;74.24
42671;BME280;28283;55.426;37.756;2023-02-10T03:28:40;100225.00;;;-3.10;75.45
42671;BME280;28283;55.426;37.756;2023-02-10T03:33:41;100209.66;;;-3.18;75.26
42671;BME280;28283;55.426;37.756;2023-02-10T03:38:42;100189.75;;;-3.22;75.06
42671;BME280;28283;55.426;37.756;2023-02-10T03:43:42;100204.41;;;-3.03;74.83
42671;BME280;28283;55.426;37.756;2023-02-10T03:48:43;100153.88;;;-3.37;75.42
42671;BME280;28283;55.426;37.756;2023-02-10T03:53:43;100167.59;;;-3.03;74.94
42671;BME280;28283;55.426;37.756;2023-02-10T03:58:44;100113.41;;;-3.49;75.09
42671;BME280;28283;55.426;37.756;2023-02-10T04:03:45;100166.47;;;-3.14;75.45
42671;BME280;28283;55.426;37.756;2023-02-10T04:08:47;100144.13;;;-3.21;75.84
42671;BME280;28283;55.426;37.756;2023-02-10T04:13:48;100131.25;;;-3.26;76.00
42671;BME280;28283;55.426;37.756;2023-02-10T04:18:48;100139.53;;;-3.17;75.65
42671;BME280;28283;55.426;37.756;2023-02-10T04:23:50;100126.16;;;-3.29;75.31
42671;BME280;28283;55.426;37.756;2023-02-10T04:28:51;100113.03;;;-3.29;76.37
42671;BME280;28283;55.426;37.756;2023-02-10T04:33:51;100106.09;;;-3.15;75.36
42671;BME280;28283;55.426;37.756;2023-02-10T04:38:52;100089.66;;;-3.33;74.91
42671;BME280;28283;55.426;37.756;2023-02-10T04:43:53;100119.06;;;-3.27;75.93
42671;BME280;28283;55.426;37.756;2023-02-10T04:48:53;100087.94;;;-3.49;75.98
42671;BME280;28283;55.426;37.756;2023-02-10T04:53:54;100106.75;;;-3.26;75.72
42671;BME280;28283;55.426;37.756;2023-02-10T04:58:57;100093.97;;;-3.32;76.08
42671;BME280;28283;55.426;37.756;2023-02-10T05:03:58;100101.41;;;-3.10;75.26
42671;BME280;28283;55.426;37.756;2023-02-10T05:08:59;100106.00;;;-3.28;75.60
42671;BME280;28283;55.426;37.756;2023-02-10T05:14:02;100089.09;;;-3.38;76.22
42671;BME280;28283;55.426;37.756;2023-02-10T05:19:03;100093.59;;;-3.12;75.17
42671;BME280;28283;55.426;37.756;2023-02-10T05:24:04;100089.00;;;-3.22;75.75
42671;BME280;28283;55.426;37.756;2023-02-10T05:29:04;100093.03;;;-3.17;76.24
42671;BME280;28283;55.426;37.756;2023-02-10T05:34:05;100069.19;;;-3.28;76.51
42671;BME280;28283;55.426;37.756;2023-02-10T05:39:06;100063.94;;;-3.28;76.00
42671;BME280;28283;55.426;37.756;2023-02-10T05:44:26;100074.72;;;-3.18;76.16
42671;BME280;28283;55.426;37.756;2023-02-10T05:49:27;100075.38;;;-3.15;76.11
42671;BME280;28283;55.426;37.756;2023-02-10T05:54:27;100054.16;;;-3.12;75.95
42671;BME280;28283;55.426;37.756;2023-02-10T05:59:29;100047.75;;;-3.22;76.30
42671;BME280;28283;55.426;37.756;2023-02-10T06:04:29;100040.34;;;-3.15;75.63
42671;BME280;28283;55.426;37.756;2023-02-10T06:09:30;100032.66;;;-3.18;75.83
42671;BME280;28283;55.426;37.756;2023-02-10T06:14:31;100036.00;;;-3.16;76.27
42671;BME280;28283;55.426;37.756;2023-02-10T06:19:31;100027.91;;;-2.99;75.94
42671;BME280;28283;55.426;37.756;2023-02-10T06:24:32;99997.31;;;-3.14;75.83
42671;BME280;28283;55.426;37.756;2023-02-10T06:29:32;99991.69;;;-3.08;76.02
42671;BME280;28283;55.426;37.756;2023-02-10T06:34:33;100000.25;;;-3.19;76.30
42671;BME280;28283;55.426;37.756;2023-02-10T06:39:33;99975.59;;;-3.03;75.48
42671;BME280;28283;55.426;37.756;2023-02-10T06:44:34;99959.66;;;-3.15;75.10
42671;BME280;28283;55.426;37.756;2023-02-10T06:49:34;99962.44;;;-3.03;75.25
42671;BME280;28283;55.426;37.756;2023-02-10T06:54:35;99945.03;;;-3.19;75.22
42671;BME280;28283;55.426;37.756;2023-02-10T06:59:35;99964.53;;;-3.09;75.22
42671;BME280;28283;55.426;37.756;2023-02-10T07:04:36;99942.53;;;-3.08;75.08
42671;BME280;28283;55.426;37.756;2023-02-10T07:09:37;99922.94;;;-2.89;74.58
42671;BME280;28283;55.426;37.756;2023-02-10T07:14:37;99889.88;;;-2.93;74.80
42671;BME280;28283;55.426;37.756;2023-02-10T07:19:38;99862.66;;;-2.66;74.23
42671;BME280;28283;55.426;37.756;2023-02-10T07:24:41;99746.91;;;-3.58;73.87
42671;BME280;28283;55.426;37.756;2023-02-10T07:29:41;99810.34;;;-2.71;73.41
42671;BME280;28283;55.426;37.756;2023-02-10T07:34:42;99821.63;;;-2.56;73.58
42671;BME280;28283;55.426;37.756;2023-02-10T07:39:43;99834.88;;;-2.71;73.08
42671;BME280;28283;55.426;37.756;2023-02-10T07:44:43;99826.75;;;-2.67;73.71
42671;BME280;28283;55.426;37.756;2023-02-10T07:49:44;99822.38;;;-2.54;73.49
42671;BME280;28283;55.426;37.756;2023-02-10T07:54:44;99807.22;;;-2.63;72.37
42671;BME280;28283;55.426;37.756;2023-02-10T07:59:45;99799.38;;;-2.39;72.34
42671;BME280;28283;55.426;37.756;2023-02-10T08:04:45;99779.59;;;-2.45;72.11
42671;BME280;28283;55.426;37.756;2023-02-10T08:09:46;99792.25;;;-2.00;71.45
42671;BME280;28283;55.426;37.756;2023-02-10T08:14:47;99786.06;;;-1.75;70.43
42671;BME280;28283;55.426;37.756;2023-02-10T08:19:47;99771.19;;;-1.52;68.83
42671;BME280;28283;55.426;37.756;2023-02-10T08:24:48;99780.66;;;-1.49;68.90
42671;BME280;28283;55.426;37.756;2023-02-10T08:29:48;99743.44;;;-1.69;68.11
42671;BME280;28283;55.426;37.756;2023-02-10T08:34:49;99791.00;;;-1.46;67.86
42671;BME280;28283;55.426;37.756;2023-02-10T08:39:51;99785.00;;;-1.48;67.11
42671;BME280;28283;55.426;37.756;2023-02-10T08:44:51;99787.25;;;-1.31;66.81
42671;BME280;28283;55.426;37.756;2023-02-10T08:49:52;99775.19;;;-1.11;66.07
42671;BME280;28283;55.426;37.756;2023-02-10T08:54:52;99779.75;;;-1.13;65.57
42671;BME280;28283;55.426;37.756;2023-02-10T08:59:53;99756.53;;;-0.85;63.57
42671;BME280;28283;55.426;37.756;2023-02-10T09:04:53;99756.13;;;-1.03;64.85
42671;BME280;28283;55.426;37.756;2023-02-10T09:09:54;99738.41;;;-0.67;62.85
42671;BME280;28283;55.426;37.756;2023-02-10T09:14:55;99717.53;;;-0.70;63.48
42671;BME280;28283;55.426;37.756;2023-02-10T09:19:55;99699.25;;;-0.17;62.32
42671;BME280;28283;55.426;37.756;2023-02-10T09:24:56;99719.94;;;-0.45;61.53
42671;BME280;28283;55.426;37.756;2023-02-10T09:29:56;99692.19;;;-0.50;62.28
42671;BME280;28283;55.426;37.756;2023-02-10T09:34:57;99692.56;;;-0.44;60.73
42671;BME280;28283;55.426;37.756;2023-02-10T09:39:58;99663.66;;;-0.56;61.41
42671;BME280;28283;55.426;37.756;2023-02-10T09:45:19;99645.75;;;-0.53;61.41
42671;BME280;28283;55.426;37.756;2023-02-10T10:00:46;99614.31;;;-0.56;60.04
42671;BME280;28283;55.426;37.756;2023-02-10T10:06:26;99609.50;;;-0.51;60.64
42671;BME280;28283;55.426;37.756;2023-02-10T10:11:38;99573.47;;;-0.84;61.10
42671;BME280;28283;55.426;37.756;2023-02-10T10:28:27;99610.59;;;-0.65;60.33
42671;BME280;28283;55.426;37.756;2023-02-10T10:33:31;99589.38;;;-0.20;58.54
42671;BME280;28283;55.426;37.756;2023-02-10T10:38:37;99587.84;;;-0.33;57.37
42671;BME280;28283;55.426;37.756;2023-02-10T10:43:46;99586.50;;;-0.60;58.79
42671;BME280;28283;55.426;37.756;2023-02-10T10:48:47;99574.19;;;-0.39;58.17
42671;BME280;28283;55.426;37.756;2023-02-10T10:53:50;99563.38;;;-0.35;56.90
42671;BME280;28283;55.426;37.756;2023-02-10T10:58:52;99541.25;;;-0.34;56.74
42671;BME280;28283;55.426;37.756;2023-02-10T11:04:23;99530.44;;;-0.31;56.87
42671;BME280;28283;55.426;37.756;2023-02-10T11:09:32;99486.91;;;-0.69;57.17
42671;BME280;28283;55.426;37.756;2023-02-10T11:14:41;99525.88;;;-0.29;55.78
42671;BME280;28283;55.426;37.756;2023-02-10T11:19:53;99497.72;;;-0.19;55.56
42671;BME280;28283;55.426;37.756;2023-02-10T11:24:57;99495.25;;;-0.53;56.54
42671;BME280;28283;55.426;37.756;2023-02-10T11:29:58;99483.38;;;-0.26;54.80
42671;BME280;28283;55.426;37.756;2023-02-10T11:35:01;99479.22;;;-0.40;55.65
42671;BME280;28283;55.426;37.756;2023-02-10T11:40:19;99490.59;;;-0.28;55.50
42671;BME280;28283;55.426;37.756;2023-02-10T11:45:29;99475.94;;;-0.32;55.40
42671;BME280;28283;55.426;37.756;2023-02-10T11:50:35;99468.22;;;-0.24;54.66
42671;BME280;28283;55.426;37.756;2023-02-10T12:01:01;99397.22;;;-0.60;55.40
42671;BME280;28283;55.426;37.756;2023-02-10T12:06:35;99451.22;;;-0.10;54.82
42671;BME280;28283;55.426;37.756;2023-02-10T12:16:59;99445.00;;;0.01;54.42
42671;BME280;28283;55.426;37.756;2023-02-10T12:27:47;99413.44;;;-0.22;55.28
42671;BME280;28283;55.426;37.756;2023-02-10T12:33:21;99420.19;;;-0.08;54.40
42671;BME280;28283;55.426;37.756;2023-02-10T12:54:39;99375.03;;;-0.05;53.06
42671;BME280;28283;55.426;37.756;2023-02-10T13:05:08;99376.19;;;0.12;52.85
42671;BME280;28283;55.426;37.756;2023-02-10T13:15:43;99362.34;;;-0.32;53.45
42671;BME280;28283;55.426;37.756;2023-02-10T13:21:27;99369.31;;;-0.31;54.26
42671;BME280;28283;55.426;37.756;2023-02-10T13:26:44;99375.28;;;-0.39;54.25
42671;BME280;28283;55.426;37.756;2023-02-10T13:37:04;99378.75;;;-0.60;54.72
42671;BME280;28283;55.426;37.756;2023-02-10T13:42:24;99357.63;;;-0.39;54.58
42671;BME280;28283;55.426;37.756;2023-02-10T13:47:35;99335.94;;;-0.63;55.39
42671;BME280;28283;55.426;37.756;2023-02-10T13:52:37;99355.00;;;-0.81;55.49
42671;BME280;28283;55.426;37.756;2023-02-10T13:57:58;99355.94;;;-0.82;55.67
42671;BME280;28283;55.426;37.756;2023-02-10T14:03:00;99358.59;;;-0.82;55.48
42671;BME280;28283;55.426;37.756;2023-02-10T14:08:13;99356.91;;;-0.83;55.20
42671;BME280;28283;55.426;37.756;2023-02-10T14:13:25;99308.44;;;-1.03;55.81
42671;BME280;28283;55.426;37.756;2023-02-10T14:18:29;99358.13;;;-0.87;55.82
42671;BME280;28283;55.426;37.756;2023-02-10T14:23:33;99345.78;;;-1.07;56.21
42671;BME280;28283;55.426;37.756;2023-02-10T14:28:37;99344.91;;;-1.08;56.62
42671;BME280;28283;55.426;37.756;2023-02-10T14:33:38;99313.03;;;-1.37;56.80
42671;BME280;28283;55.426;37.756;2023-02-10T14:38:39;99367.28;;;-1.23;57.54
42671;BME280;28283;55.426;37.756;2023-02-10T14:43:40;99342.56;;;-1.11;57.08
42671;BME280;28283;55.426;37.756;2023-02-10T14:48:40;99341.66;;;-1.00;57.15
42671;BME280;28283;55.426;37.756;2023-02-10T14:53:41;99329.16;;;-1.19;57.44
42671;BME280;28283;55.426;37.756;2023-02-10T14:58:43;99332.88;;;-1.22;57.20
42671;BME280;28283;55.426;37.756;2023-02-10T15:03:44;99335.59;;;-1.12;57.87
42671;BME280;28283;55.426;37.756;2023-02-10T15:08:56;99338.63;;;-0.96;57.54
42671;BME280;28283;55.426;37.756;2023-02-10T15:13:57;99338.34;;;-1.13;57.77
42671;BME280;28283;55.426;37.756;2023-02-10T15:19:00;99327.47;;;-1.20;57.72
42671;BME280;28283;55.426;37.756;2023-02-10T15:24:02;99324.22;;;-1.12;57.68
42671;BME280;28283;55.426;37.756;2023-02-10T15:29:15;99328.38;;;-1.31;59.06
42671;BME280;28283;55.426;37.756;2023-02-10T15:34:20;99342.13;;;-0.95;57.96
42671;BME280;28283;55.426;37.756;2023-02-10T15:39:41;99331.13;;;-1.11;58.93
42671;BME280;28283;55.426;37.756;2023-02-10T15:44:43;99327.16;;;-0.85;57.57
42671;BME280;28283;55.426;37.756;2023-02-10T15:49:51;99319.22;;;-1.27;58.46
42671;BME280;28283;55.426;37.756;2023-02-10T15:54:55;99332.19;;;-1.03;58.65
42671;BME280;28283;55.426;37.756;2023-02-10T15:59:56;99348.06;;;-1.14;57.98
42671;BME280;28283;55.426;37.756;2023-02-10T16:04:57;99358.97;;;-1.19;58.89
42671;BME280;28283;55.426;37.756;2023-02-10T16:09:57;99354.09;;;-1.23;59.42
42671;BME280;28283;55.426;37.756;2023-02-10T16:14:58;99358.84;;;-0.85;58.39
42671;BME280;28283;55.426;37.756;2023-02-10T16:25:10;99321.25;;;-0.98;59.04
42671;BME280;28283;55.426;37.756;2023-02-10T16:30:23;99373.97;;;-0.87;58.88
42671;BME280;28283;55.426;37.756;2023-02-10T16:35:25;99335.63;;;-1.23;59.31
42671;BME280;28283;55.426;37.756;2023-02-10T16:45:52;99386.91;;;-0.84;59.67
42671;BME280;28283;55.426;37.756;2023-02-10T16:50:55;99390.19;;;-0.91;59.87
42671;BME280;28283;55.426;37.756;2023-02-10T16:55:58;99379.78;;;-1.04;61.69
42671;BME280;28283;55.426;37.756;2023-02-10T17:00:59;99397.66;;;-1.40;65.20
42671;BME280;28283;55.426;37.756;2023-02-10T17:06:00;99409.75;;;-1.38;68.61
42671;BME280;28283;55.426;37.756;2023-02-10T17:11:00;99411.97;;;-1.77;70.93
42671;BME280;28283;55.426;37.756;2023-02-10T17:16:01;99403.97;;;-1.86;72.49
42671;BME280;28283;55.426;37.756;2023-02-10T17:21:02;99415.19;;;-1.96;73.38
42671;BME280;28283;55.426;37.756;2023-02-10T17:26:03;99407.28;;;-1.73;74.00
42671;BME280;28283;55.426;37.756;2023-02-10T17:31:03;99398.06;;;-2.01;74.70
42671;BME280;28283;55.426;37.756;2023-02-10T17:36:05;99391.97;;;-2.02;75.07
42671;BME280;28283;55.426;37.756;2023-02-10T17:41:08;99422.25;;;-2.19;75.62
42671;BME280;28283;55.426;37.756;2023-02-10T17:46:10;99386.22;;;-2.29;76.30
42671;BME280;28283;55.426;37.756;2023-02-10T17:51:16;99418.88;;;-2.21;76.75
42671;BME280;28283;55.426;37.756;2023-02-10T17:56:19;99423.09;;;-2.07;77.03
42671;BME280;28283;55.426;37.756;2023-02-10T18:01:22;99417.38;;;-2.01;77.40
42671;BME280;28283;55.426;37.756;2023-02-10T18:06:23;99417.09;;;-2.09;77.57
42671;BME280;28283;55.426;37.756;2023-02-10T18:11:26;99402.50;;;-1.90;76.71
42671;BME280;28283;55.426;37.756;2023-02-10T18:16:29;99407.50;;;-2.10;76.84
42671;BME280;28283;55.426;37.756;2023-02-10T18:21:30;99381.78;;;-2.06;78.61
42671;BME280;28283;55.426;37.756;2023-02-10T18:26:31;99391.63;;;-1.97;77.08
42671;BME280;28283;55.426;37.756;2023-02-10T18:31:32;99386.47;;;-1.99;76.97
42671;BME280;28283;55.426;37.756;2023-02-10T18:36:32;99375.91;;;-1.76;76.48
42671;BME280;28283;55.426;37.756;2023-02-10T18:41:33;99386.59;;;-2.00;77.07
42671;BME280;28283;55.426;37.756;2023-02-10T18:46:34;99360.59;;;-2.05;77.11
42671;BME280;28283;55.426;37.756;2023-02-10T18:51:34;99398.09;;;-1.90;76.57
42671;BME280;28283;55.426;37.756;2023-02-10T18:56:35;99392.56;;;-1.98;77.45
42671;BME280;28283;55.426;37.756;2023-02-10T19:01:36;99355.09;;;-2.02;76.43
42671;BME280;28283;55.426;37.756;2023-02-10T19:06:37;99377.09;;;-2.03;76.40
42671;BME280;28283;55.426;37.756;2023-02-10T19:11:38;99382.16;;;-2.11;76.09
42671;BME280;28283;55.426;37.756;2023-02-10T19:16:38;99390.53;;;-2.06;75.54
42671;BME280;28283;55.426;37.756;2023-02-10T19:21:39;99372.56;;;-1.89;75.26
42671;BME280;28283;55.426;37.756;2023-02-10T19:26:40;99400.09;;;-2.16;75.73
42671;BME280;28283;55.426;37.756;2023-02-10T19:31:43;99391.34;;;-2.28;75.57
42671;BME280;28283;55.426;37.756;2023-02-10T19:36:45;99395.56;;;-1.92;74.79
42671;BME280;28283;55.426;37.756;2023-02-10T19:41:46;99378.66;;;-2.45;76.39
42671;BME280;28283;55.426;37.756;2023-02-10T19:46:47;99371.25;;;-1.95;75.05
42671;BME280;28283;55.426;37.756;2023-02-10T19:51:48;99377.47;;;-2.30;75.55
42671;BME280;28283;55.426;37.756;2023-02-10T19:56:49;99390.00;;;-2.45;76.36
42671;BME280;28283;55.426;37.756;2023-02-10T20:01:49;99395.44;;;-2.13;75.63
42671;BME280;28283;55.426;37.756;2023-02-10T20:06:50;99371.84;;;-2.03;74.68
42671;BME280;28283;55.426;37.756;2023-02-10T20:11:50;99380.72;;;-2.15;75.29
42671;BME280;28283;55.426;37.756;2023-02-10T20:16:51;99384.88;;;-2.35;75.82
42671;BME280;28283;55.426;37.756;2023-02-10T20:21:52;99396.03;;;-1.98;74.69
42671;BME280;28283;55.426;37.756;2023-02-10T20:26:53;99380.59;;;-2.25;75.41
42671;BME280;28283;55.426;37.756;2023-02-10T20:31:54;99376.91;;;-2.22;75.57
42671;BME280;28283;55.426;37.756;2023-02-10T20:36:54;99380.47;;;-1.89;74.46
42671;BME280;28283;55.426;37.756;2023-02-10T20:41:55;99386.00;;;-2.04;74.71
42671;BME280;28283;55.426;37.756;2023-02-10T20:46:55;99382.28;;;-1.90;74.13
42671;BME280;28283;55.426;37.756;2023-02-10T20:51:56;99378.31;;;-1.96;73.95
42671;BME280;28283;55.426;37.756;2023-02-10T20:56:56;99357.38;;;-2.20;74.41
42671;BME280;28283;55.426;37.756;2023-02-10T21:01:57;99355.44;;;-2.06;74.68
42671;BME280;28283;55.426;37.756;2023-02-10T21:06:58;99357.84;;;-2.03;74.35
42671;BME280;28283;55.426;37.756;2023-02-10T21:12:00;99367.66;;;-1.94;73.88
42671;BME280;28283;55.426;37.756;2023-02-10T21:17:01;99364.66;;;-1.89;74.37
42671;BME280;28283;55.426;37.756;2023-02-10T21:22:01;99374.47;;;-1.80;73.32
42671;BME280;28283;55.426;37.756;2023-02-10T21:27:02;99368.97;;;-1.88;73.36
42671;BME280;28283;55.426;37.756;2023-02-10T21:32:04;99303.13;;;-2.00;73.37
42671;BME280;28283;55.426;37.756;2023-02-10T21:37:04;99342.13;;;-1.60;73.52
42671;BME280;28283;55.426;37.756;2023-02-10T21:42:05;99335.50;;;-1.65;73.32
42671;BME280;28283;55.426;37.756;2023-02-10T21:47:08;99304.88;;;-1.34;72.99
42671;BME280;28283;55.426;37.756;2023-02-10T21:52:10;99336.94;;;-1.50;73.13
42671;BME280;28283;55.426;37.756;2023-02-10T21:57:13;99362.72;;;-1.76;74.23
42671;BME280;28283;55.426;37.756;2023-02-10T22:02:15;99341.56;;;-1.42;72.98
42671;BME280;28283;55.426;37.756;2023-02-10T22:07:16;99354.13;;;-1.89;74.07
42671;BME280;28283;55.426;37.756;2023-02-10T22:12:16;99342.13;;;-1.71;73.20
42671;BME280;28283;55.426;37.756;2023-02-10T22:17:17;99348.63;;;-1.86;74.06
42671;BME280;28283;55.426;37.756;2023-02-10T22:22:17;99344.66;;;-1.92;75.16
42671;BME280;28283;55.426;37.756;2023-02-10T22:27:18;99359.41;;;-2.12;74.41
42671;BME280;28283;55.426;37.756;2023-02-10T22:32:18;99358.44;;;-1.88;73.92
42671;BME280;28283;55.426;37.756;2023-02-10T22:37:19;99360.34;;;-1.90;74.65
42671;BME280;28283;55.426;37.756;2023-02-10T22:42:20;99374.97;;;-1.98;74.34
42671;BME280;28283;55.426;37.756;2023-02-10T22:47:20;99380.25;;;-2.09;75.00
42671;BME280;28283;55.426;37.756;2023-02-10T22:52:21;99379.50;;;-2.00;75.22
42671;BME280;28283;55.426;37.756;2023-02-10T22:57:21;99369.44;;;-1.83;74.85
42671;BME280;28283;55.426;37.756;2023-02-10T23:02:22;99356.88;;;-1.68;73.39
42671;BME280;28283;55.426;37.756;2023-02-10T23:07:22;99315.66;;;-1.69;73.78
42671;BME280;28283;55.426;37.756;2023-02-10T23:12:23;99377.13;;;-1.80;74.09
42671;BME280;28283;55.426;37.756;2023-02-10T23:17:23;99370.78;;;-2.12;74.78
42671;BME280;28283;55.426;37.756;2023-02-10T23:22:24;99369.34;;;-1.70;74.18
42671;BME280;28283;55.426;37.756;2023-02-10T23:27:24;99372.22;;;-1.96;74.93
42671;BME280;28283;55.426;37.756;2023-02-10T23:32:25;99369.72;;;-1.86;74.71
42671;BME280;28283;55.426;37.756;2023-02-10T23:37:26;99359.63;;;-1.93;75.27
42671;BME280;28283;55.426;37.756;2023-02-10T23:42:26;99344.91;;;-1.84;74.79
42671;BME280;28283;55.426;37.756;2023-02-10T23:47:27;99366.22;;;-1.87;75.24
42671;BME280;28283;55.426;37.756;2023-02-10T23:52:27;99375.22;;;-2.01;75.51
42671;BME280;28283;55.426;37.756;2023-02-10T23:57:28;99347.44;;;-1.94;75.05
